Terminal Aerodrome Forecast
Issued by NWS

Home | Current Version | Previous Version | Text Only | Print | Product List | Glossary On
Versions: 1 2 3 4 5 6 7 8 9 10 11 12 13 14 15 16 17 18 19 20
000
FTUS46 KEKA 011720
TAFCEC
TAF
KCEC 011720Z 0118/0218 21008KT P6SM SKC
     FM012000 27008KT P6SM SKC
     FM012200 32008KT P6SM SCT250
     FM020200 VRB04KT 6SM BR SCT008 BKN250
     FM020600 VRB02KT 4SM BR BKN005 BKN250
      TEMPO 0208/0212 2SM BR OVC003=

USA.gov is the U.S. government's official web portal to all federal, state and local government web resources and services.